Time;durP1;ratioP1;P1;durP2;ratioP2;P2;SDS_P1;SDS_P2;PMS_P1;PMS_P2;Temp;Humidity;BMP_temperature;BMP_pressure;BME280_temperature;BME280_humidity;BME280_pressure;Samples;Min_cycle;Max_cycle;Signal;HPM_P1;HPM_P2
2023/09/22 00:00:18;;;;;;;13.23;10.38;;;;;;;13.19;100.00;99741.59;5063147;28;20047;-62
2023/09/22 00:02:47;;;;;;;11.38;10.27;;;;;;;13.15;100.00;99744.72;5038526;28;20028;-62
2023/09/22 00:05:13;;;;;;;11.43;10.30;;;;;;;13.16;100.00;99741.06;5055682;28;20024;-63
2023/09/22 00:07:40;;;;;;;10.80;9.80;;;;;;;13.13;100.00;99741.34;5059439;28;20440;-62
2023/09/22 00:10:06;;;;;;;10.85;9.75;;;;;;;13.05;100.00;99735.84;5053763;28;20021;-62
2023/09/22 00:12:35;;;;;;;10.82;9.70;;;;;;;13.03;100.00;99736.00;5062007;28;20028;-62
2023/09/22 00:15:03;;;;;;;10.40;5.35;;;;;;;13.22;100.00;99742.31;5052860;28;21650;-62
2023/09/22 00:17:29;;;;;;;10.60;8.73;;;;;;;13.05;100.00;99741.19;5054861;28;20053;-63
2023/09/22 00:19:54;;;;;;;10.68;9.63;;;;;;;13.07;100.00;99737.41;5054723;28;20056;-63
2023/09/22 00:22:20;;;;;;;11.35;9.70;;;;;;;13.02;100.00;99741.47;5064797;28;20017;-62
2023/09/22 00:24:45;;;;;;;9.75;8.70;;;;;;;12.94;100.00;99736.81;5035390;28;20395;-62
2023/09/22 00:27:11;;;;;;;10.05;8.95;;;;;;;12.95;100.00;99739.34;5053513;28;20316;-62
2023/09/22 00:29:36;;;;;;;10.13;9.13;;;;;;;12.88;100.00;99746.25;5056104;28;20036;-62
2023/09/22 00:32:04;;;;;;;11.13;8.80;;;;;;;12.89;100.00;99739.09;5051584;28;20099;-63
2023/09/22 00:34:32;;;;;;;10.18;9.18;;;;;;;12.86;100.00;99739.34;5037902;28;20029;-62
2023/09/22 00:36:58;;;;;;;13.80;9.43;;;;;;;12.78;100.00;99748.03;5040835;28;20037;-62
2023/09/22 00:39:23;;;;;;;11.05;9.85;;;;;;;12.76;100.00;99746.50;5043696;28;20083;-63
2023/09/22 00:41:54;;;;;;;10.88;9.73;;;;;;;12.84;100.00;99741.31;5063781;28;20017;-62
2023/09/22 00:44:19;;;;;;;14.02;12.48;;;;;;;12.81;100.00;99741.59;5063157;28;20460;-62
2023/09/22 00:46:44;;;;;;;14.95;10.52;;;;;;;12.70;100.00;99746.06;5071167;28;20103;-63
2023/09/22 00:49:10;;;;;;;15.35;12.45;;;;;;;12.69;100.00;99739.03;5067704;28;20025;-62
2023/09/22 00:51:36;;;;;;;15.95;10.95;;;;;;;12.76;100.00;99723.31;5047541;28;20040;-62
2023/09/22 00:54:01;;;;;;;15.40;12.32;;;;;;;12.79;100.00;99719.53;5021541;28;20048;-62
2023/09/22 00:56:28;;;;;;;16.58;11.65;;;;;;;12.71;100.00;99717.56;5065510;28;20035;-62
2023/09/22 00:58:56;;;;;;;9.82;5.82;;;;;;;12.83;100.00;99711.13;5065543;28;20094;-63
2023/09/22 01:01:23;;;;;;;14.32;11.50;;;;;;;12.73;100.00;99724.47;5039923;28;20586;-62
2023/09/22 01:03:51;;;;;;;16.27;12.30;;;;;;;12.80;100.00;99739.91;5062645;28;20043;-62
2023/09/22 01:06:17;;;;;;;13.02;11.13;;;;;;;12.75;100.00;99742.16;5066273;28;20028;-62
2023/09/22 01:08:43;;;;;;;14.35;11.73;;;;;;;12.73;100.00;99747.59;5062198;28;20021;-62
2023/09/22 01:11:09;;;;;;;15.95;11.35;;;;;;;12.70;100.00;99727.38;5064903;28;20096;-62
2023/09/22 01:13:36;;;;;;;14.98;12.25;;;;;;;12.72;100.00;99727.25;5051417;28;20548;-63
2023/09/22 01:16:04;;;;;;;13.55;12.05;;;;;;;12.78;100.00;99736.53;5052521;28;20029;-63
2023/09/22 01:18:30;;;;;;;14.80;11.88;;;;;;;12.84;100.00;99734.16;5057794;28;20047;-62
2023/09/22 01:20:59;;;;;;;14.10;11.25;;;;;;;12.71;100.00;99741.59;5037999;28;21021;-63
2023/09/22 01:23:27;;;;;;;17.52;12.63;;;;;;;12.62;100.00;99735.25;5052010;28;20393;-62
2023/09/22 01:25:52;;;;;;;16.90;12.60;;;;;;;12.63;100.00;99730.75;5039483;28;20017;-63
2023/09/22 01:28:20;;;;;;;16.33;11.93;;;;;;;12.70;100.00;99723.88;5039081;28;20025;-62
2023/09/22 01:30:46;;;;;;;15.57;13.45;;;;;;;12.65;100.00;99720.78;5033878;28;20044;-62
2023/09/22 01:33:12;;;;;;;15.27;12.93;;;;;;;12.62;100.00;99702.41;5054501;28;20028;-62
2023/09/22 01:35:37;;;;;;;15.02;12.52;;;;;;;12.66;100.00;99712.63;5050857;28;20081;-62
2023/09/22 01:38:11;;;;;;;13.93;12.30;;;;;;;12.51;100.00;99714.03;5056842;28;20403;-62
2023/09/22 01:40:37;;;;;;;18.38;12.82;;;;;;;12.54;100.00;99711.06;5058090;28;20027;-62
2023/09/22 01:43:03;;;;;;;17.73;13.25;;;;;;;12.61;100.00;99711.38;5049690;28;20025;-63
2023/09/22 01:45:29;;;;;;;14.77;6.38;;;;;;;12.76;100.00;99719.81;5051100;28;20029;-62
2023/09/22 01:47:54;;;;;;;15.20;13.48;;;;;;;12.65;100.00;99710.97;5048325;28;20406;-63
2023/09/22 01:50:20;;;;;;;17.52;13.20;;;;;;;12.57;100.00;99720.63;5053269;28;20107;-63
2023/09/22 01:52:45;;;;;;;14.55;13.05;;;;;;;12.62;100.00;99734.41;5064527;28;20029;-63
2023/09/22 01:55:11;;;;;;;16.70;13.05;;;;;;;12.58;100.00;99727.66;5051570;28;20037;-62
2023/09/22 01:57:37;;;;;;;16.67;13.85;;;;;;;12.64;100.00;99719.09;5059831;28;20067;-62
2023/09/22 02:00:05;;;;;;;16.70;14.07;;;;;;;12.67;100.00;99713.47;5049082;28;20035;-63
2023/09/22 02:02:30;;;;;;;16.10;14.43;;;;;;;12.60;100.00;99718.53;5057722;28;20425;-62
2023/09/22 02:04:56;;;;;;;16.98;14.10;;;;;;;12.62;100.00;99726.41;5062219;28;20049;-62
2023/09/22 02:07:22;;;;;;;15.43;13.73;;;;;;;12.61;100.00;99717.53;5052514;28;20029;-62
2023/09/22 02:09:50;;;;;;;19.52;14.55;;;;;;;12.57;100.00;99710.81;5064991;28;20060;-62
2023/09/22 02:12:15;;;;;;;16.80;14.13;;;;;;;12.61;100.00;99712.19;5069344;28;20021;-62
2023/09/22 02:14:40;;;;;;;16.50;14.30;;;;;;;12.57;100.00;99715.31;5049517;28;20074;-62
2023/09/22 02:17:06;;;;;;;16.92;14.10;;;;;;;12.58;100.00;99714.31;5052233;28;20119;-62
2023/09/22 02:19:35;;;;;;;21.45;14.00;;;;;;;12.57;100.00;99710.81;5033400;28;20384;-62
2023/09/22 02:22:03;;;;;;;19.70;13.88;;;;;;;12.58;100.00;99719.66;5048126;28;20033;-63
2023/09/22 02:24:28;;;;;;;19.65;14.63;;;;;;;12.55;100.00;99719.91;5048604;28;20455;-62
2023/09/22 02:26:56;;;;;;;20.10;14.32;;;;;;;12.43;100.00;99719.19;5050944;28;20037;-62
2023/09/22 02:29:21;;;;;;;18.38;13.90;;;;;;;12.54;100.00;99726.25;5054503;28;20090;-61
2023/09/22 02:31:47;;;;;;;16.73;14.25;;;;;;;12.56;100.00;99727.81;5033043;28;20468;-61
2023/09/22 02:34:13;;;;;;;20.02;14.60;;;;;;;12.57;100.00;99721.47;5051058;28;20030;-62
2023/09/22 02:36:38;;;;;;;16.65;13.98;;;;;;;12.58;100.00;99714.31;5050073;28;20040;-62
2023/09/22 02:39:04;;;;;;;16.20;13.18;;;;;;;12.58;100.00;99717.81;5052293;28;20029;-62
2023/09/22 02:41:29;;;;;;;16.38;13.30;;;;;;;12.61;100.00;99716.69;5038984;28;20032;-62
2023/09/22 02:43:56;;;;;;;18.83;13.52;;;;;;;12.52;100.00;99717.53;5025435;28;20036;-62
2023/09/22 02:46:24;;;;;;;19.95;13.93;;;;;;;12.49;100.00;99719.47;5066291;28;20447;-62
2023/09/22 02:48:49;;;;;;;16.52;14.23;;;;;;;12.52;100.00;99725.53;5050523;28;20033;-62
2023/09/22 02:51:15;;;;;;;17.98;14.10;;;;;;;12.49;100.00;99718.63;5050981;28;20027;-62
2023/09/22 02:53:45;;;;;;;15.00;13.40;;;;;;;12.67;100.00;99727.66;5052513;28;20142;-62
2023/09/22 02:56:10;;;;;;;15.98;12.45;;;;;;;12.54;100.00;99720.91;5053935;28;20041;-62
2023/09/22 02:58:35;;;;;;;17.80;13.18;;;;;;;12.49;100.00;99724.81;5053355;28;20032;-62
2023/09/22 03:01:03;;;;;;;15.10;13.18;;;;;;;12.59;100.00;99724.00;5056765;28;20384;-63
2023/09/22 03:03:32;;;;;;;16.63;12.32;;;;;;;12.50;100.00;99715.00;5062126;28;20020;-62
2023/09/22 03:05:59;;;;;;;11.02;6.28;;;;;;;12.68;100.00;99726.69;5058584;28;20432;-62
2023/09/22 03:08:24;;;;;;;16.40;12.38;;;;;;;12.58;100.00;99719.66;5039631;28;20044;-62
2023/09/22 03:10:50;;;;;;;15.88;12.07;;;;;;;12.51;100.00;99727.34;5042267;28;20117;-62
2023/09/22 03:13:15;;;;;;;17.60;12.60;;;;;;;12.52;100.00;99730.88;5072939;28;20048;-62
2023/09/22 03:15:41;;;;;;;14.40;11.30;;;;;;;12.46;100.00;99730.41;5060983;28;20039;-62
2023/09/22 03:18:06;;;;;;;18.25;11.70;;;;;;;12.48;100.00;99733.81;5054801;28;20456;-62
2023/09/22 03:20:31;;;;;;;16.98;11.40;;;;;;;12.46;100.00;99727.75;5063047;28;20033;-63
2023/09/22 03:22:57;;;;;;;14.65;11.73;;;;;;;12.43;100.00;99736.03;5036264;28;20032;-62
2023/09/22 03:25:22;;;;;;;16.70;12.30;;;;;;;12.44;100.00;99724.41;5046319;28;20103;-63
2023/09/22 03:27:48;;;;;;;18.55;11.10;;;;;;;12.44;100.00;99731.53;5064741;28;20411;-62
2023/09/22 03:30:15;;;;;;;12.35;9.88;;;;;;;12.46;100.00;99726.91;5065359;28;20096;-62
2023/09/22 03:32:41;;;;;;;12.02;9.98;;;;;;;12.48;100.00;99728.47;5054883;28;20043;-63
2023/09/22 03:35:07;;;;;;;18.95;10.50;;;;;;;12.44;100.00;99729.72;5037378;28;20029;-62
2023/09/22 03:37:34;;;;;;;12.25;9.88;;;;;;;12.44;100.00;99737.72;5056006;28;20543;-62
2023/09/22 03:40:09;;;;;;;10.40;9.32;;;;;;;12.48;100.00;99732.97;5035089;28;20554;-62
2023/09/22 03:42:35;;;;;;;12.23;8.82;;;;;;;12.52;100.00;99741.53;5067599;28;20182;-62
2023/09/22 03:45:00;;;;;;;18.95;10.07;;;;;;;12.50;100.00;99731.84;5070386;28;20103;-62
2023/09/22 03:47:25;;;;;;;11.95;8.93;;;;;;;12.49;100.00;99737.31;5054553;28;20053;-62
2023/09/22 03:49:51;;;;;;;8.45;5.00;;;;;;;12.62;100.00;99734.41;5058601;28;20087;-62
2023/09/22 03:52:17;;;;;;;8.32;7.35;;;;;;;12.56;100.00;99721.59;5047922;28;20035;-63
2023/09/22 03:54:43;;;;;;;12.48;8.07;;;;;;;12.50;100.00;99731.00;5037732;28;20560;-62
2023/09/22 03:57:11;;;;;;;10.35;7.63;;;;;;;12.50;100.00;99742.53;5058600;28;20028;-63
2023/09/22 03:59:36;;;;;;;9.88;7.32;;;;;;;12.47;100.00;99742.78;5060902;28;20103;-62
2023/09/22 04:02:02;;;;;;;8.60;7.07;;;;;;;12.54;100.00;99742.25;5044718;28;20115;-62
2023/09/22 04:04:31;;;;;;;11.50;7.45;;;;;;;12.46;100.00;99742.91;5055013;28;20431;-63
2023/09/22 04:06:58;;;;;;;7.78;6.40;;;;;;;12.54;100.00;99742.25;5040955;28;20021;-62
2023/09/22 04:09:23;;;;;;;9.77;6.18;;;;;;;12.53;100.00;99746.75;5053476;28;20048;-62
2023/09/22 04:11:53;;;;;;;8.43;6.35;;;;;;;12.51;100.00;99738.03;5055679;28;20024;-62
2023/09/22 04:14:20;;;;;;;11.73;6.30;;;;;;;12.54;100.00;99739.59;5056619;28;20033;-63
2023/09/22 04:16:46;;;;;;;11.50;6.57;;;;;;;12.63;100.00;99744.09;5039769;28;20030;-62
2023/09/22 04:19:11;;;;;;;9.95;6.03;;;;;;;12.48;100.00;99739.13;5065975;28;20138;-62
2023/09/22 04:21:42;;;;;;;9.80;5.88;;;;;;;12.47;100.00;99737.47;5037177;28;20115;-62
2023/09/22 04:24:09;;;;;;;7.05;5.63;;;;;;;12.53;100.00;99751.22;5056161;28;20032;-62
2023/09/22 04:26:42;;;;;;;9.80;6.00;;;;;;;12.48;100.00;99754.31;5068885;28;20040;-62
2023/09/22 04:29:08;;;;;;;8.05;3.42;;;;;;;12.57;100.00;99764.16;5057857;28;20036;-62
2023/09/22 04:31:36;;;;;;;8.23;5.45;;;;;;;12.40;100.00;99746.13;5060826;28;20423;-62
2023/09/22 04:34:01;;;;;;;11.40;6.30;;;;;;;12.42;100.00;99754.84;5034383;28;20036;-62
2023/09/22 04:36:27;;;;;;;6.95;5.40;;;;;;;12.39;100.00;99755.97;5050655;28;20059;-62
2023/09/22 04:38:53;;;;;;;13.68;6.13;;;;;;;12.37;100.00;99757.91;5034735;28;20021;-62
2023/09/22 04:41:19;;;;;;;8.80;5.63;;;;;;;12.33;100.00;99755.66;5059776;28;20047;-62
2023/09/22 04:43:47;;;;;;;7.18;5.20;;;;;;;12.25;100.00;99743.84;5036790;28;20025;-62
2023/09/22 04:46:15;;;;;;;9.15;3.03;;;;;;;12.44;100.00;99763.53;5034032;28;20135;-63
2023/09/22 04:48:40;;;;;;;7.97;5.32;;;;;;;12.34;100.00;99760.00;5057659;28;20029;-63
2023/09/22 04:51:06;;;;;;;8.98;5.00;;;;;;;12.27;100.00;99759.72;5052522;28;20054;-62
2023/09/22 04:53:32;;;;;;;8.45;5.80;;;;;;;12.27;100.00;99760.53;5057451;28;20062;-63
2023/09/22 04:56:03;;;;;;;9.07;6.55;;;;;;;12.26;100.00;99760.66;5054425;28;20053;-62
2023/09/22 04:58:28;;;;;;;12.55;6.38;;;;;;;12.25;100.00;99759.00;5057734;28;20032;-62
2023/09/22 05:00:54;;;;;;;13.05;5.95;;;;;;;12.26;100.00;99763.34;5059282;28;20389;-62
2023/09/22 05:03:19;;;;;;;11.45;6.55;;;;;;;12.22;100.00;99757.44;5042872;28;20044;-62
2023/09/22 05:05:45;;;;;;;8.15;6.32;;;;;;;12.18;100.00;99760.50;5058200;28;20503;-62
2023/09/22 05:08:10;;;;;;;9.20;5.55;;;;;;;12.16;100.00;99770.47;5048716;28;20086;-62
2023/09/22 05:10:36;;;;;;;7.93;5.57;;;;;;;12.21;100.00;99768.25;5059023;28;20025;-62
2023/09/22 05:13:03;;;;;;;6.43;5.43;;;;;;;12.18;100.00;99771.19;5052396;28;20081;-62
2023/09/22 05:15:29;;;;;;;11.95;5.65;;;;;;;12.08;100.00;99759.63;5055370;28;20032;-62
2023/09/22 05:17:55;;;;;;;7.57;5.93;;;;;;;12.13;100.00;99776.06;5058379;28;20032;-62
2023/09/22 05:20:20;;;;;;;7.72;5.47;;;;;;;12.16;100.00;99783.78;5058065;28;20107;-62
2023/09/22 05:22:46;;;;;;;11.27;5.53;;;;;;;12.15;100.00;99785.63;5054587;28;20548;-63
2023/09/22 05:25:12;;;;;;;11.43;6.18;;;;;;;12.14;100.00;99794.56;5044355;28;20125;-62
2023/09/22 05:27:40;;;;;;;9.32;6.25;;;;;;;12.11;100.00;99788.66;5066647;28;20027;-62
2023/09/22 05:30:07;;;;;;;10.05;6.20;;;;;;;12.09;100.00;99786.16;5054816;28;20451;-62
2023/09/22 05:32:32;;;;;;;5.97;5.13;;;;;;;12.03;100.00;99784.84;5068250;28;20108;-62
2023/09/22 05:34:59;;;;;;;9.30;5.68;;;;;;;12.08;100.00;99794.25;5035439;28;20116;-62
2023/09/22 05:37:25;;;;;;;10.43;6.18;;;;;;;12.02;100.00;99801.81;5065999;28;20035;-62
2023/09/22 05:39:51;;;;;;;9.45;6.20;;;;;;;12.08;100.00;99805.75;5059339;28;20036;-62
2023/09/22 05:42:17;;;;;;;7.07;5.95;;;;;;;12.07;100.00;99811.25;5060065;28;20407;-63
2023/09/22 05:44:44;;;;;;;9.48;6.65;;;;;;;12.06;100.00;99810.41;5063177;28;20027;-62
2023/09/22 05:47:09;;;;;;;7.97;6.43;;;;;;;12.03;100.00;99821.31;5037312;28;20471;-62
2023/09/22 05:49:34;;;;;;;6.57;5.20;;;;;;;11.99;100.00;99818.06;5066959;28;20024;-62
2023/09/22 05:52:01;;;;;;;6.22;3.55;;;;;;;12.14;100.00;99815.88;5056853;28;20028;-62
2023/09/22 05:54:26;;;;;;;10.25;6.65;;;;;;;12.07;100.00;99812.09;5050424;28;20071;-62
2023/09/22 05:56:51;;;;;;;8.73;5.93;;;;;;;12.09;100.00;99811.94;5059476;28;20059;-62
2023/09/22 05:59:17;;;;;;;7.88;6.15;;;;;;;12.07;100.00;99811.25;5051245;28;20028;-62
2023/09/22 06:01:46;;;;;;;8.75;6.15;;;;;;;12.08;100.00;99834.25;5033405;28;20036;-62
2023/09/22 06:04:12;;;;;;;9.15;5.85;;;;;;;12.08;100.00;99837.75;5051031;28;20094;-62
2023/09/22 06:06:38;;;;;;;7.30;6.00;;;;;;;12.08;100.00;99836.91;5047722;28;20025;-63
2023/09/22 06:09:10;;;;;;;10.35;6.53;;;;;;;12.10;100.00;99838.47;5070934;28;20047;-62
2023/09/22 06:11:37;;;;;;;9.65;5.97;;;;;;;12.09;100.00;99839.44;5060238;28;20017;-62
2023/09/22 06:14:04;;;;;;;10.70;6.03;;;;;;;12.09;100.00;99846.56;5048531;28;20040;-62
2023/09/22 06:16:30;;;;;;;6.25;5.63;;;;;;;12.04;100.00;99833.66;5047572;28;20078;-62
2023/09/22 06:18:56;;;;;;;8.32;5.90;;;;;;;12.09;100.00;99842.13;5029605;28;20024;-62
2023/09/22 06:21:21;;;;;;;5.82;3.30;;;;;;;12.20;100.00;99839.34;5030684;28;20035;-62
2023/09/22 06:23:47;;;;;;;10.35;5.93;;;;;;;12.22;100.00;99845.41;5043250;28;20028;-62
2023/09/22 06:26:12;;;;;;;11.30;5.65;;;;;;;12.21;100.00;99850.88;5051756;28;20017;-62
2023/09/22 06:28:38;;;;;;;7.07;5.65;;;;;;;12.21;100.00;99854.38;5045903;28;20032;-62
2023/09/22 06:31:04;;;;;;;4.00;3.40;;;;;;;12.28;100.00;99854.69;5037568;28;20029;-62
2023/09/22 06:33:32;;;;;;;6.47;5.88;;;;;;;12.24;100.00;99858.63;5051176;28;20107;-62
2023/09/22 06:36:01;;;;;;;11.02;6.32;;;;;;;12.27;100.00;99855.69;5049061;28;20491;-62
2023/09/22 06:38:27;;;;;;;12.18;5.63;;;;;;;12.28;100.00;99860.88;5032884;28;20059;-62
2023/09/22 06:40:55;;;;;;;7.30;5.95;;;;;;;12.33;100.00;99854.31;5051228;28;20053;-62
2023/09/22 06:43:24;;;;;;;8.80;5.53;;;;;;;12.32;100.00;99869.44;5058598;28;20085;-62
2023/09/22 06:45:53;;;;;;;8.43;5.15;;;;;;;12.37;100.00;99869.91;5031534;28;20033;-62
2023/09/22 06:48:26;;;;;;;4.07;2.97;;;;;;;12.44;100.00;99875.53;5053057;28;20029;-63
2023/09/22 06:50:53;;;;;;;9.52;6.28;;;;;;;12.44;100.00;99876.41;5041028;28;20025;-62
2023/09/22 06:53:19;;;;;;;10.35;5.13;;;;;;;12.45;100.00;99877.25;5065678;28;20033;-62
2023/09/22 06:55:44;;;;;;;8.13;5.38;;;;;;;12.44;100.00;99873.75;5054356;28;20530;-62
2023/09/22 06:58:10;;;;;;;7.57;5.43;;;;;;;12.49;100.00;99884.00;5051762;28;20136;-62
2023/09/22 07:00:35;;;;;;;6.65;4.68;;;;;;;12.56;100.00;99887.84;5039993;28;20487;-62
2023/09/22 07:03:01;;;;;;;6.53;3.33;;;;;;;12.61;100.00;99884.75;5053360;28;20044;-63
2023/09/22 07:05:26;;;;;;;8.48;4.60;;;;;;;12.60;100.00;99880.41;5041086;28;20024;-63
2023/09/22 07:07:52;;;;;;;7.18;4.95;;;;;;;12.55;100.00;99880.78;5032844;28;20033;-62
2023/09/22 07:10:19;;;;;;;5.35;4.50;;;;;;;12.67;100.00;99886.88;5054749;28;20371;-62
2023/09/22 07:12:45;;;;;;;5.57;4.90;;;;;;;12.71;100.00;99883.81;5056182;28;20031;-62
2023/09/22 07:15:10;;;;;;;3.95;3.10;;;;;;;12.77;100.00;99895.78;5061886;28;20025;-62
2023/09/22 07:17:36;;;;;;;5.80;4.53;;;;;;;12.73;100.00;99889.88;5050068;28;20035;-62
2023/09/22 07:20:08;;;;;;;7.30;4.35;;;;;;;12.76;100.00;99891.41;5042166;28;20035;-63
2023/09/22 07:22:34;;;;;;;6.75;3.85;;;;;;;12.79;100.00;99895.63;5044711;28;20025;-62
2023/09/22 07:25:03;;;;;;;8.18;4.00;;;;;;;12.84;100.00;99899.59;5027969;28;20391;-63
2023/09/22 07:27:29;;;;;;;5.32;3.50;;;;;;;12.89;100.00;99907.22;5032593;28;20021;-62
2023/09/22 07:29:54;;;;;;;6.40;3.90;;;;;;;12.89;100.00;99902.72;5045579;28;20051;-63
2023/09/22 07:32:20;;;;;;;5.70;4.10;;;;;;;12.89;100.00;99897.38;5046277;28;20037;-62
2023/09/22 07:34:45;;;;;;;5.97;3.92;;;;;;;12.93;100.00;99903.28;5031503;28;20117;-62
2023/09/22 07:37:12;;;;;;;7.68;3.85;;;;;;;12.96;100.00;99906.50;5048295;28;20025;-62
2023/09/22 07:39:38;;;;;;;5.78;3.38;;;;;;;13.04;100.00;99916.53;5044903;28;20056;-62
2023/09/22 07:42:04;;;;;;;5.22;2.90;;;;;;;13.04;100.00;99919.19;5053244;28;20566;-62
2023/09/22 07:44:30;;;;;;;3.80;3.05;;;;;;;13.08;100.00;99925.94;5068201;28;20427;-62
2023/09/22 07:47:00;;;;;;;5.97;3.30;;;;;;;13.10;100.00;99936.50;5035431;28;20099;-63
2023/09/22 07:49:29;;;;;;;3.75;3.33;;;;;;;13.14;100.00;99928.06;5049474;28;20033;-62
2023/09/22 07:51:55;;;;;;;4.53;3.10;;;;;;;13.14;100.00;99929.91;5018552;28;20071;-62
2023/09/22 07:54:21;;;;;;;4.78;3.45;;;;;;;13.16;100.00;99933.28;5052825;28;20052;-62
2023/09/22 07:56:49;;;;;;;4.10;3.17;;;;;;;13.26;99.67;99944.84;5054132;28;20104;-62
2023/09/22 07:59:16;;;;;;;3.45;2.90;;;;;;;13.34;100.00;99946.84;5053775;28;20021;-62
2023/09/22 08:01:42;;;;;;;6.78;2.72;;;;;;;13.43;100.00;99945.19;5053857;28;20025;-62
2023/09/22 08:04:09;;;;;;;6.40;3.00;;;;;;;13.38;98.30;99938.44;5053224;28;20398;-62
2023/09/22 08:06:34;;;;;;;4.70;2.90;;;;;;;13.52;98.57;99947.88;5053675;28;20387;-62
2023/09/22 08:09:00;;;;;;;3.42;2.65;;;;;;;13.65;96.91;99944.97;5053532;28;20025;-63
2023/09/22 08:11:26;;;;;;;4.43;2.80;;;;;;;13.66;95.25;99946.63;5054269;28;20017;-62
2023/09/22 08:13:51;;;;;;;3.95;2.53;;;;;;;13.82;97.40;99954.97;5053851;28;20526;-62
2023/09/22 08:16:17;;;;;;;4.93;2.25;;;;;;;14.03;93.99;99965.53;5053982;28;20383;-62
2023/09/22 08:18:43;;;;;;;4.53;2.78;;;;;;;14.14;94.03;99966.34;5069398;28;20086;-63
2023/09/22 08:21:09;;;;;;;3.58;2.20;;;;;;;14.23;92.85;99960.16;5069259;28;20459;-63
2023/09/22 08:23:34;;;;;;;4.97;2.75;;;;;;;14.40;90.48;99969.28;5053393;28;20476;-62
2023/09/22 08:26:05;;;;;;;4.22;2.20;;;;;;;14.52;91.54;99969.00;5053698;28;20051;-63
2023/09/22 08:28:31;;;;;;;3.13;2.40;;;;;;;14.69;88.62;99955.88;5053533;28;20064;-62
2023/09/22 08:30:57;;;;;;;4.95;2.50;;;;;;;14.87;89.78;99969.34;5053642;28;20025;-63
2023/09/22 08:33:22;;;;;;;3.33;2.30;;;;;;;14.91;86.58;99960.88;5068891;28;20154;-62
2023/09/22 08:35:49;;;;;;;2.97;2.60;;;;;;;15.16;85.88;99964.72;5035760;28;20032;-63
2023/09/22 08:38:14;;;;;;;4.75;2.42;;;;;;;15.30;84.73;99971.44;5053136;28;20025;-62
2023/09/22 08:40:46;;;;;;;5.88;2.20;;;;;;;15.43;83.54;99974.59;5053625;28;20052;-63
2023/09/22 08:43:16;;;;;;;5.20;2.47;;;;;;;15.45;82.00;99982.50;5053463;28;20036;-63
2023/09/22 08:45:42;;;;;;;5.30;2.42;;;;;;;15.48;80.87;99978.66;5053616;28;20017;-62
2023/09/22 08:48:10;;;;;;;6.57;2.42;;;;;;;15.41;81.83;99968.56;5052967;28;20051;-62
2023/09/22 08:50:37;;;;;;;2.55;1.92;;;;;;;15.53;81.76;99982.59;5068613;28;20165;-63
2023/09/22 08:53:03;;;;;;;2.85;2.20;;;;;;;15.55;81.28;99983.25;5052614;28;20424;-63
2023/09/22 08:55:32;;;;;;;3.22;2.30;;;;;;;15.43;79.27;99984.47;5053054;28;20051;-63
2023/09/22 08:57:57;;;;;;;2.75;2.40;;;;;;;15.44;78.99;99980.78;5053142;28;20471;-63
2023/09/22 09:00:26;;;;;;;3.83;2.05;;;;;;;15.36;79.35;99983.38;5053400;28;20052;-63
2023/09/22 09:03:00;;;;;;;3.60;2.05;;;;;;;15.27;80.09;99987.81;5068365;28;20020;-63
2023/09/22 09:05:31;;;;;;;2.95;2.55;;;;;;;15.26;80.53;99986.09;5068323;28;20116;-63
2023/09/22 09:08:18;;;;;;;4.22;2.33;;;;;;;15.53;80.52;99979.91;5052496;28;20048;-63
2023/09/22 09:10:46;;;;;;;4.13;1.90;;;;;;;15.53;79.94;99995.13;5068444;28;20025;-62
2023/09/22 09:13:20;;;;;;;3.53;2.22;;;;;;;15.64;80.60;100001.13;5068144;28;20029;-63
2023/09/22 09:15:50;;;;;;;4.72;2.65;;;;;;;15.82;76.96;100001.19;5035124;28;20052;-62
2023/09/22 09:18:17;;;;;;;3.15;2.20;;;;;;;15.88;74.61;99995.25;5053542;28;20100;-63
2023/09/22 09:20:44;;;;;;;2.42;2.22;;;;;;;16.01;76.77;99999.38;5052736;28;20027;-63
2023/09/22 09:23:19;;;;;;;2.25;2.00;;;;;;;15.98;75.59;100000.53;5037812;28;20024;-62
2023/09/22 09:25:55;;;;;;;4.07;2.40;;;;;;;15.93;74.11;100010.00;5072458;28;20082;-62
2023/09/22 09:28:23;;;;;;;4.22;2.17;;;;;;;15.98;75.84;99999.69;5072529;28;20024;-62
2023/09/22 09:30:54;;;;;;;2.40;2.10;;;;;;;16.10;75.19;100009.19;5054733;28;20074;-63
2023/09/22 09:33:21;;;;;;;2.88;2.08;;;;;;;16.21;75.53;100003.59;5070238;28;20398;-62
2023/09/22 09:35:48;;;;;;;3.35;2.30;;;;;;;16.35;74.33;100000.38;5072328;28;20107;-63
2023/09/22 09:38:16;;;;;;;2.83;2.42;;;;;;;16.41;75.55;100004.25;5053777;28;20048;-63
2023/09/22 09:40:42;;;;;;;3.67;2.30;;;;;;;16.57;73.29;100012.44;5054500;28;20530;-62
2023/09/22 09:43:10;;;;;;;2.88;2.42;;;;;;;16.89;72.88;100019.09;5054325;28;20028;-63
2023/09/22 09:45:43;;;;;;;4.90;2.20;;;;;;;17.06;73.46;100011.97;5070122;28;20017;-62
2023/09/22 09:48:13;;;;;;;3.97;2.47;;;;;;;17.03;71.86;100018.50;5043775;28;20036;-62
2023/09/22 09:50:40;;;;;;;2.70;2.50;;;;;;;17.12;70.58;100014.03;5034823;28;20099;-63
2023/09/22 09:53:14;;;;;;;2.25;2.05;;;;;;;17.06;70.05;100021.84;5051554;28;20052;-63
2023/09/22 09:55:43;;;;;;;2.63;2.22;;;;;;;17.35;68.44;100027.72;5068606;28;20041;-63
2023/09/22 09:58:12;;;;;;;3.05;2.40;;;;;;;17.30;68.65;100021.16;5034216;28;20159;-63
2023/09/22 10:00:39;;;;;;;5.05;2.53;;;;;;;17.31;67.42;100021.00;5056305;28;20025;-63
2023/09/22 10:03:07;;;;;;;4.03;2.65;;;;;;;17.49;67.71;100008.28;5030026;28;20123;-63
2023/09/22 10:05:33;;;;;;;2.70;2.08;;;;;;;17.72;67.38;100015.78;5043403;28;20029;-63
2023/09/22 10:08:00;;;;;;;3.22;1.95;;;;;;;17.99;66.46;100014.69;5031783;28;20485;-63
2023/09/22 10:10:27;;;;;;;2.65;2.15;;;;;;;17.70;65.77;100015.09;5045481;28;20020;-63
2023/09/22 10:12:53;;;;;;;3.40;2.30;;;;;;;17.79;66.75;100007.91;5048296;28;20029;-63
2023/09/22 10:15:53;;;;;;;2.47;2.20;;;;;;;17.79;64.15;100022.19;5049905;28;20021;-63
2023/09/22 10:18:23;;;;;;;2.22;1.92;;;;;;;17.91;64.62;100012.84;5065405;28;20472;-63
2023/09/22 10:20:49;;;;;;;3.25;2.13;;;;;;;18.08;65.47;100011.00;5047698;28;20085;-63
2023/09/22 10:23:25;;;;;;;2.65;2.10;;;;;;;18.56;65.63;100011.19;5018563;28;20032;-63
2023/09/22 10:26:16;;;;;;;2.95;2.10;;;;;;;18.62;64.42;100010.53;5036833;28;20032;-63
2023/09/22 10:28:42;;;;;;;6.95;2.40;;;;;;;18.39;62.55;100013.91;5051095;28;20082;-63
2023/09/22 10:31:10;;;;;;;2.60;1.90;;;;;;;18.45;60.28;100012.38;5042424;28;20085;-63
2023/09/22 10:33:36;;;;;;;2.40;2.10;;;;;;;18.28;61.23;99998.06;5025557;28;20499;-63
2023/09/22 10:36:04;;;;;;;3.63;2.00;;;;;;;18.49;60.29;100013.72;5051167;28;20021;-63
2023/09/22 10:38:29;;;;;;;2.17;1.97;;;;;;;18.60;61.86;100007.16;5042518;28;20599;-63
2023/09/22 10:41:01;;;;;;;4.53;2.42;;;;;;;19.22;61.74;100022.75;5051009;28;20044;-63
2023/09/22 10:43:27;;;;;;;3.40;2.17;;;;;;;18.93;58.55;100007.97;5049582;28;20364;-63
2023/09/22 10:45:53;;;;;;;2.95;2.20;;;;;;;19.04;57.69;100012.19;5050890;28;20361;-64
2023/09/22 10:48:19;;;;;;;6.28;2.00;;;;;;;19.13;57.89;100005.75;5033375;28;20028;-64
2023/09/22 10:50:53;;;;;;;3.65;2.28;;;;;;;19.32;56.58;100009.06;5055360;28;20061;-63
2023/09/22 10:53:21;;;;;;;2.67;1.90;;;;;;;19.75;57.76;99999.63;5049217;28;20029;-64
2023/09/22 10:55:46;;;;;;;2.70;1.92;;;;;;;20.26;54.82;100004.50;5061257;28;20053;-63
2023/09/22 10:58:14;;;;;;;1.88;1.70;;;;;;;20.72;52.73;100005.34;5032869;28;20032;-64
2023/09/22 11:00:53;;;;;;;3.25;2.00;;;;;;;20.92;52.70;100021.03;5026895;28;20395;-62
2023/09/22 11:03:19;;;;;;;2.25;1.70;;;;;;;20.81;52.48;100006.94;5026718;28;20484;-63
2023/09/22 11:05:55;;;;;;;4.60;2.10;;;;;;;20.91;52.28;100016.63;5017800;28;20076;-63
2023/09/22 11:08:20;;;;;;;3.35;1.90;;;;;;;20.98;54.00;100015.72;5032324;28;20044;-63
2023/09/22 11:10:50;;;;;;;2.22;1.73;;;;;;;21.84;52.51;100007.94;5017845;28;20021;-63
2023/09/22 11:13:16;;;;;;;2.78;1.70;;;;;;;21.76;48.67;100000.75;5050447;28;20031;-64
2023/09/22 11:15:49;;;;;;;3.72;1.45;;;;;;;20.71;51.86;100014.47;5053028;28;20033;-63
2023/09/22 11:18:21;;;;;;;2.45;1.50;;;;;;;20.14;53.81;100012.19;5054820;28;20025;-63
2023/09/22 11:20:47;;;;;;;3.72;1.60;;;;;;;19.57;55.88;100024.13;5051723;28;20065;-63